createdAt,value
2023-04-23T00:03:50.406Z,49246.72
2023-04-23T00:08:55.822Z,49218.72
2023-04-23T00:14:00.608Z,49232.72
2023-04-23T00:19:06.373Z,49268.69
2023-04-23T00:24:10.837Z,49252.69
2023-04-23T00:29:15.253Z,49246.72
2023-04-23T00:34:21.506Z,49256.69
2023-04-23T00:39:26.046Z,49216.72
2023-04-23T00:44:31.200Z,49228.72
2023-04-23T00:49:37.393Z,49256.69
2023-04-23T00:54:42.241Z,49238.72
2023-04-23T00:59:46.966Z,49194.75
2023-04-23T01:04:52.982Z,49214.72
2023-04-23T01:09:57.637Z,49194.75
2023-04-23T01:15:02.420Z,49234.72
2023-04-23T01:20:09.890Z,49250.69
2023-04-23T01:25:15.918Z,49222.72
2023-04-23T01:30:20.794Z,49206.72
2023-04-23T01:35:25.838Z,49208.72
2023-04-23T01:40:31.620Z,49202.75
2023-04-23T01:45:36.052Z,49200.75
2023-04-23T01:50:41.240Z,49196.75
2023-04-23T01:55:49.131Z,49208.72
2023-04-23T02:00:53.704Z,49178.75
2023-04-23T02:05:59.505Z,49190.75
2023-04-23T02:11:07.296Z,49230.72
2023-04-23T02:16:13.326Z,49222.72
2023-04-23T02:21:17.692Z,49242.72
2023-04-23T02:26:25.248Z,49180.75
2023-04-23T02:31:29.475Z,49178.75
2023-04-23T02:36:33.944Z,49200.75
2023-04-23T02:41:39.906Z,49222.72
2023-04-23T02:46:44.335Z,49238.72
2023-04-23T02:51:48.866Z,49224.72
2023-04-23T02:56:54.872Z,49226.72
2023-04-23T03:01:59.243Z,49222.72
2023-04-23T03:07:03.687Z,49224.72
2023-04-23T03:12:11.450Z,49234.72
2023-04-23T03:17:16.171Z,49194.75
2023-04-23T03:22:20.544Z,49214.72
2023-04-23T03:27:26.377Z,49250.69
2023-04-23T03:32:31.091Z,49258.69
2023-04-23T03:37:35.672Z,49270.69
2023-04-23T03:42:42.630Z,49234.72
2023-04-23T03:47:50.084Z,49284.69
2023-04-23T03:52:55.434Z,49252.69
2023-04-23T03:58:21.220Z,49264.69
2023-04-23T04:03:26.411Z,49266.69
2023-04-23T04:08:31.363Z,49286.69
2023-04-23T04:13:37.083Z,49268.69
2023-04-23T04:18:41.292Z,49268.69
2023-04-23T04:23:46.706Z,49292.69
2023-04-23T04:28:53.484Z,49294.66
2023-04-23T04:33:58.021Z,49282.69
2023-04-23T04:39:03.804Z,49326.66
2023-04-23T04:44:09.887Z,49338.63
2023-04-23T04:49:14.757Z,49354.63
2023-04-23T04:54:18.987Z,49398.59
2023-04-23T04:59:25.318Z,49416.59
2023-04-23T05:04:29.955Z,49420.59
2023-04-23T05:09:34.460Z,49450.56
2023-04-23T05:14:40.235Z,49566.50
2023-04-23T05:19:44.995Z,49626.44
2023-04-23T05:24:49.518Z,49620.47
2023-04-23T05:29:55.789Z,49614.47
2023-04-23T05:35:00.405Z,49602.47
2023-04-23T05:40:07.698Z,49610.47
2023-04-23T05:45:13.885Z,49706.41
2023-04-23T05:50:18.728Z,49754.38
2023-04-23T05:55:24.200Z,49874.31
2023-04-23T06:00:30.716Z,50190.16
2023-04-23T06:05:34.941Z,50735.94
2023-04-23T06:10:39.568Z,51005.84
2023-04-23T06:15:45.389Z,51509.75
2023-04-23T06:20:51.833Z,51113.81
2023-04-23T06:25:56.013Z,50961.84
2023-04-23T06:31:03.017Z,51069.81
2023-04-23T06:36:11.142Z,50949.84
2023-04-23T06:41:16.281Z,51425.75
2023-04-23T06:46:22.505Z,51213.78
2023-04-23T06:51:27.840Z,51423.75
2023-04-23T06:56:32.365Z,50973.84
2023-04-23T07:01:38.279Z,51347.75
2023-04-23T07:06:42.627Z,51205.78
2023-04-23T07:11:47.382Z,50977.84
2023-04-23T07:16:54.753Z,51077.81
2023-04-23T07:21:59.177Z,51441.75
2023-04-23T07:27:04.003Z,51323.78
2023-04-23T07:32:35.193Z,51509.75
2023-04-23T07:37:39.850Z,51161.81
2023-04-23T07:42:44.576Z,51749.72
2023-04-23T07:47:52.134Z,51765.72
2023-04-23T07:52:56.874Z,52175.69
2023-04-23T07:58:01.227Z,51561.72
2023-04-23T08:03:07.327Z,52301.72
2023-04-23T08:08:13.466Z,52553.72
2023-04-23T08:13:18.032Z,52643.75
2023-04-23T08:18:24.026Z,51709.72
2023-04-23T08:23:28.418Z,51737.72
2023-04-23T08:28:32.808Z,51639.72
2023-04-23T08:33:38.429Z,51103.81
2023-04-23T08:38:42.867Z,51021.84
2023-04-23T08:43:52.205Z,50941.88
2023-04-23T08:49:02.571Z,50797.91
2023-04-23T08:54:34.346Z,50967.84
2023-04-23T08:59:42.323Z,50941.88
2023-04-23T09:04:50.881Z,50691.94
2023-04-23T09:09:56.814Z,50647.97
2023-04-23T09:15:12.697Z,50593.97
2023-04-23T09:27:27.708Z,50843.88
2023-04-23T09:32:33.960Z,50767.91
2023-04-23T09:37:38.200Z,50625.97
2023-04-23T09:48:46.854Z,50789.91
2023-04-23T09:53:51.382Z,50833.91
2023-04-23T09:58:56.516Z,51209.78
2023-04-23T10:09:49.198Z,50917.88
2023-04-23T10:20:41.146Z,50945.84
2023-04-23T10:25:49.079Z,50861.88
2023-04-23T10:30:56.501Z,50847.88
2023-04-23T10:41:28.131Z,50827.91
2023-04-23T10:46:33.485Z,50891.88
2023-04-23T10:58:56.198Z,50985.84
2023-04-23T11:04:00.881Z,51241.78
2023-04-23T11:09:46.631Z,51257.78
2023-04-23T11:15:00.120Z,51095.81
2023-04-23T11:20:14.157Z,51337.78
2023-04-23T11:25:22.260Z,51269.78
2023-04-23T11:36:56.965Z,51207.78
2023-04-23T11:42:03.533Z,50909.88
2023-04-23T11:47:15.812Z,50973.84
2023-04-23T11:58:11.240Z,50763.91
2023-04-23T12:03:16.833Z,50909.88
2023-04-23T12:15:30.015Z,51051.84
2023-04-23T12:20:35.079Z,51105.81
2023-04-23T12:25:42.565Z,51379.75
2023-04-23T12:36:59.975Z,51161.81
2023-04-23T12:42:10.329Z,51273.78
2023-04-23T12:53:34.860Z,51031.84
2023-04-23T12:58:39.198Z,50977.84
2023-04-23T13:03:45.861Z,51141.81
2023-04-23T13:14:32.267Z,50833.91
2023-04-23T13:25:43.243Z,51847.72
2023-04-23T13:30:49.569Z,51877.72
2023-04-23T13:35:54.780Z,52107.69
2023-04-23T13:41:06.082Z,52221.72
2023-04-23T13:53:44.752Z,51913.72
2023-04-23T13:58:49.140Z,50937.88
2023-04-23T14:03:53.368Z,50709.94
2023-04-23T14:14:43.590Z,51121.81
2023-04-23T14:19:49.810Z,51675.72
2023-04-23T14:24:58.545Z,52525.72
2023-04-23T14:35:36.057Z,50897.88
2023-04-23T14:40:46.579Z,51001.84
2023-04-23T14:52:59.344Z,50705.94
2023-04-23T14:58:03.920Z,50585.97
2023-04-23T15:03:11.310Z,50613.97
2023-04-23T15:21:39.239Z,51035.84
2023-04-23T15:26:45.986Z,50943.84
2023-04-23T15:31:52.085Z,50801.91
2023-04-23T15:36:57.663Z,50955.84
2023-04-23T15:42:02.219Z,51105.81
2023-04-23T15:47:06.833Z,51131.81
2023-04-23T15:58:32.851Z,50889.88
2023-04-23T16:03:37.433Z,50745.91
2023-04-23T16:08:46.377Z,50671.94
2023-04-23T16:13:52.831Z,50633.97
2023-04-23T16:18:57.756Z,50599.97
2023-04-23T16:24:02.448Z,50641.97
2023-04-23T16:29:21.469Z,50567.97
2023-04-23T16:34:27.234Z,50542.00
2023-04-23T16:39:31.695Z,50567.97
2023-04-23T16:44:37.466Z,50532.00
2023-04-23T16:49:42.016Z,50514.00
2023-04-23T16:54:49.608Z,50462.03
2023-04-23T16:59:55.494Z,50474.03
2023-04-23T17:04:59.942Z,50484.03
2023-04-23T17:10:04.158Z,50402.06
2023-04-23T17:15:11.291Z,50490.00
2023-04-23T17:20:16.359Z,50438.03
2023-04-23T17:25:20.889Z,50430.03
2023-04-23T17:30:26.766Z,50398.06
2023-04-23T17:35:31.108Z,50414.03
2023-04-23T17:40:36.373Z,50334.09
2023-04-23T17:45:43.499Z,50326.09
2023-04-23T17:50:48.402Z,50358.06
2023-04-23T17:55:53.167Z,50372.06
2023-04-23T18:00:59.587Z,50360.06
2023-04-23T18:06:04.422Z,50326.09
2023-04-23T18:11:08.924Z,50304.09
2023-04-23T18:16:14.755Z,50302.09
2023-04-23T18:21:19.300Z,50284.09
2023-04-23T18:26:24.228Z,50156.16
2023-04-23T18:31:30.214Z,50070.19
2023-04-23T18:36:35.969Z,50054.22
2023-04-23T18:41:40.500Z,50114.19
2023-04-23T18:46:46.758Z,50122.19
2023-04-23T18:51:52.817Z,50122.19
2023-04-23T18:56:57.573Z,50072.19
2023-04-23T19:02:03.983Z,50054.22
2023-04-23T19:07:08.659Z,50066.22
2023-04-23T19:12:12.748Z,49990.25
2023-04-23T19:17:19.126Z,49984.25
2023-04-23T19:22:25.919Z,50018.22
2023-04-23T19:27:30.268Z,50040.22
2023-04-23T19:32:36.080Z,49984.25
2023-04-23T19:37:40.554Z,50006.25
2023-04-23T19:42:44.905Z,49986.25
2023-04-23T19:47:50.647Z,50026.22
2023-04-23T19:52:55.263Z,49954.25
2023-04-23T19:57:59.823Z,49968.25
2023-04-23T20:03:05.884Z,49972.25
2023-04-23T20:08:15.738Z,49938.28
2023-04-23T20:13:20.862Z,49882.31
2023-04-23T20:18:29.725Z,49898.28
2023-04-23T20:23:34.350Z,49858.31
2023-04-23T20:28:38.676Z,49838.31
2023-04-23T20:33:44.418Z,49854.31
2023-04-23T20:38:48.799Z,49834.34
2023-04-23T20:43:53.261Z,49806.34
2023-04-23T20:49:00.964Z,49786.34
2023-04-23T20:54:06.286Z,49782.34
2023-04-23T20:59:10.796Z,49794.34
2023-04-23T21:04:16.842Z,49762.38
2023-04-23T21:09:21.294Z,49782.34
2023-04-23T21:14:25.734Z,49782.34
2023-04-23T21:19:31.627Z,49806.34
2023-04-23T21:24:35.862Z,49748.38
2023-04-23T21:29:40.170Z,49788.34
2023-04-23T21:34:46.080Z,49756.38
2023-04-23T21:39:50.693Z,49730.38
2023-04-23T21:44:55.146Z,49714.41
2023-04-23T21:50:01.663Z,49744.38
2023-04-23T21:55:06.608Z,49764.38
2023-04-23T22:00:14.138Z,49778.38
2023-04-23T22:05:21.494Z,49738.38
2023-04-23T22:10:26.268Z,49764.38
2023-04-23T22:15:31.094Z,49766.38
2023-04-23T22:20:37.816Z,49758.38
2023-04-23T22:25:42.200Z,49744.38
2023-04-23T22:30:46.699Z,49754.38
2023-04-23T22:35:52.339Z,49718.41
2023-04-23T22:40:56.729Z,49770.38
2023-04-23T22:46:01.246Z,49760.38
2023-04-23T22:51:07.132Z,49762.38
2023-04-23T22:56:11.258Z,49742.38
2023-04-23T23:01:15.533Z,49752.38
2023-04-23T23:06:22.265Z,49768.38
2023-04-23T23:11:28.898Z,49772.38
2023-04-23T23:16:33.361Z,49756.38
2023-04-23T23:21:39.944Z,49776.38
2023-04-23T23:26:44.127Z,49792.34
2023-04-23T23:31:48.508Z,49752.38
2023-04-23T23:36:54.685Z,49774.38
2023-04-23T23:41:59.854Z,49746.38
2023-04-23T23:47:04.504Z,49678.41
2023-04-23T23:52:10.366Z,49704.41
2023-04-23T23:57:14.568Z,49734.38
